Mytishchi, Russia
Current Conditions -  °F | °C
As of 2:00 AM on Saturday 20 Dec 2014 (Local Time) from UUEE Reporting Station
Overcast Overcast  
Wind Chill: 28°   Ceiling: 300
Heat Index: 37°   Visibility: 6mi
Dew Point: 36°   Wind: 16mph
Humidity: 93%   Direction: 210°SSW
Pressure: 29.41"   Gusts: NA
Location:  55.91°N, 37.73°E
Report Text: UUEE 192300Z 21007MPS 9999 OVC003 03/02 Q0996 25520545 NOSIG
Loading
Personal Weather Stations






























Interactive Weather Map New forecast layout! Learn more

10-Day Weather Forecast

Advertisements
Track Severe Weather on mobile